sensor_id;sensor_type;location;lat;lon;timestamp;temperature;humidity
15386;DHT22;7791;47.246;9.648;2023-03-01T00:02:21;2.00;99.90
15386;DHT22;7791;47.246;9.648;2023-03-01T00:04:49;2.10;99.90
15386;DHT22;7791;47.246;9.648;2023-03-01T00:07:14;2.10;99.90
15386;DHT22;7791;47.246;9.648;2023-03-01T00:09:40;2.10;99.90
15386;DHT22;7791;47.246;9.648;2023-03-01T00:12:06;2.10;99.90
15386;DHT22;7791;47.246;9.648;2023-03-01T00:14:32;2.10;99.90
15386;DHT22;7791;47.246;9.648;2023-03-01T00:16:58;2.20;99.90
15386;DHT22;7791;47.246;9.648;2023-03-01T00:19:24;2.20;99.90
15386;DHT22;7791;47.246;9.648;2023-03-01T00:21:51;2.20;99.90
15386;DHT22;7791;47.246;9.648;2023-03-01T00:24:17;2.20;99.90
15386;DHT22;7791;47.246;9.648;2023-03-01T00:26:56;2.10;99.90
15386;DHT22;7791;47.246;9.648;2023-03-01T00:29:22;2.20;99.90
15386;DHT22;7791;47.246;9.648;2023-03-01T00:31:48;2.20;99.90
15386;DHT22;7791;47.246;9.648;2023-03-01T00:34:14;2.20;99.90
15386;DHT22;7791;47.246;9.648;2023-03-01T00:36:39;2.20;99.90
15386;DHT22;7791;47.246;9.648;2023-03-01T00:39:11;2.20;99.90
15386;DHT22;7791;47.246;9.648;2023-03-01T00:44:40;2.20;99.90
15386;DHT22;7791;47.246;9.648;2023-03-01T00:47:06;2.10;99.90
15386;DHT22;7791;47.246;9.648;2023-03-01T00:49:31;2.00;99.90
15386;DHT22;7791;47.246;9.648;2023-03-01T00:51:59;2.10;99.90
15386;DHT22;7791;47.246;9.648;2023-03-01T00:54:26;2.10;99.90
15386;DHT22;7791;47.246;9.648;2023-03-01T01:09:05;2.10;99.90
15386;DHT22;7791;47.246;9.648;2023-03-01T01:11:33;2.00;99.90
15386;DHT22;7791;47.246;9.648;2023-03-01T01:13:59;2.00;99.90
15386;DHT22;7791;47.246;9.648;2023-03-01T01:16:27;2.00;99.90
15386;DHT22;7791;47.246;9.648;2023-03-01T01:18:53;2.10;99.90
15386;DHT22;7791;47.246;9.648;2023-03-01T01:21:21;2.10;99.90
15386;DHT22;7791;47.246;9.648;2023-03-01T01:23:48;2.10;99.90
15386;DHT22;7791;47.246;9.648;2023-03-01T01:26:15;2.10;99.90
15386;DHT22;7791;47.246;9.648;2023-03-01T01:29:03;2.00;99.90
15386;DHT22;7791;47.246;9.648;2023-03-01T01:31:29;2.00;99.90
15386;DHT22;7791;47.246;9.648;2023-03-01T01:33:55;2.00;99.90
15386;DHT22;7791;47.246;9.648;2023-03-01T01:36:22;1.90;99.90
15386;DHT22;7791;47.246;9.648;2023-03-01T01:38:48;1.70;99.90
15386;DHT22;7791;47.246;9.648;2023-03-01T01:41:16;1.80;99.90
15386;DHT22;7791;47.246;9.648;2023-03-01T01:44:16;1.90;99.90
15386;DHT22;7791;47.246;9.648;2023-03-01T01:46:45;1.90;99.90
15386;DHT22;7791;47.246;9.648;2023-03-01T01:49:19;1.70;99.90
15386;DHT22;7791;47.246;9.648;2023-03-01T01:51:49;1.60;99.90
15386;DHT22;7791;47.246;9.648;2023-03-01T01:54:20;1.70;99.90
15386;DHT22;7791;47.246;9.648;2023-03-01T01:56:50;1.70;99.90
15386;DHT22;7791;47.246;9.648;2023-03-01T02:05:36;1.80;99.90
15386;DHT22;7791;47.246;9.648;2023-03-01T02:08:04;1.80;99.90
15386;DHT22;7791;47.246;9.648;2023-03-01T02:10:32;1.70;99.90
15386;DHT22;7791;47.246;9.648;2023-03-01T02:13:04;1.70;99.90
15386;DHT22;7791;47.246;9.648;2023-03-01T02:15:32;1.60;99.90
15386;DHT22;7791;47.246;9.648;2023-03-01T02:17:58;1.50;99.90
15386;DHT22;7791;47.246;9.648;2023-03-01T02:20:28;1.60;99.90
15386;DHT22;7791;47.246;9.648;2023-03-01T02:22:56;1.70;99.90
15386;DHT22;7791;47.246;9.648;2023-03-01T02:25:35;1.80;99.90
15386;DHT22;7791;47.246;9.648;2023-03-01T02:28:33;1.90;99.90
15386;DHT22;7791;47.246;9.648;2023-03-01T02:31:01;1.90;99.90
15386;DHT22;7791;47.246;9.648;2023-03-01T02:33:27;1.90;99.90
15386;DHT22;7791;47.246;9.648;2023-03-01T02:35:54;1.90;99.90
15386;DHT22;7791;47.246;9.648;2023-03-01T02:38:21;1.90;99.90
15386;DHT22;7791;47.246;9.648;2023-03-01T02:40:49;1.70;99.90
15386;DHT22;7791;47.246;9.648;2023-03-01T02:49:27;1.70;99.90
15386;DHT22;7791;47.246;9.648;2023-03-01T02:52:14;1.80;99.90
15386;DHT22;7791;47.246;9.648;2023-03-01T02:54:45;1.80;99.90
15386;DHT22;7791;47.246;9.648;2023-03-01T02:57:12;1.90;99.90
15386;DHT22;7791;47.246;9.648;2023-03-01T03:00:16;1.90;99.90
15386;DHT22;7791;47.246;9.648;2023-03-01T03:02:42;1.90;99.90
15386;DHT22;7791;47.246;9.648;2023-03-01T03:05:11;1.90;99.90
15386;DHT22;7791;47.246;9.648;2023-03-01T03:07:40;1.90;99.90
15386;DHT22;7791;47.246;9.648;2023-03-01T03:10:08;1.80;99.90
15386;DHT22;7791;47.246;9.648;2023-03-01T03:12:34;1.60;99.90
15386;DHT22;7791;47.246;9.648;2023-03-01T03:15:00;1.50;99.90
15386;DHT22;7791;47.246;9.648;2023-03-01T03:17:27;1.40;99.90
15386;DHT22;7791;47.246;9.648;2023-03-01T03:19:53;1.50;99.90
15386;DHT22;7791;47.246;9.648;2023-03-01T03:22:20;1.40;99.90
15386;DHT22;7791;47.246;9.648;2023-03-01T03:24:46;1.40;99.90
15386;DHT22;7791;47.246;9.648;2023-03-01T03:27:12;1.40;99.90
15386;DHT22;7791;47.246;9.648;2023-03-01T03:29:38;1.40;99.90
15386;DHT22;7791;47.246;9.648;2023-03-01T03:32:06;1.50;99.90
15386;DHT22;7791;47.246;9.648;2023-03-01T03:34:32;1.60;99.90
15386;DHT22;7791;47.246;9.648;2023-03-01T03:36:58;1.60;99.90
15386;DHT22;7791;47.246;9.648;2023-03-01T03:39:28;1.40;99.90
15386;DHT22;7791;47.246;9.648;2023-03-01T03:41:58;1.40;99.90
15386;DHT22;7791;47.246;9.648;2023-03-01T03:44:28;1.30;99.90
15386;DHT22;7791;47.246;9.648;2023-03-01T03:46:54;1.30;99.90
15386;DHT22;7791;47.246;9.648;2023-03-01T03:49:20;1.30;99.90
15386;DHT22;7791;47.246;9.648;2023-03-01T03:51:46;1.40;99.90
15386;DHT22;7791;47.246;9.648;2023-03-01T03:54:17;1.50;99.90
15386;DHT22;7791;47.246;9.648;2023-03-01T03:56:48;1.30;99.90
15386;DHT22;7791;47.246;9.648;2023-03-01T03:59:17;1.30;99.90
15386;DHT22;7791;47.246;9.648;2023-03-01T04:01:45;1.20;99.90
15386;DHT22;7791;47.246;9.648;2023-03-01T04:04:15;1.30;99.90
15386;DHT22;7791;47.246;9.648;2023-03-01T04:06:46;1.40;99.90
15386;DHT22;7791;47.246;9.648;2023-03-01T04:09:14;1.40;99.90
15386;DHT22;7791;47.246;9.648;2023-03-01T04:11:45;1.50;99.90
15386;DHT22;7791;47.246;9.648;2023-03-01T04:14:12;1.60;99.90
15386;DHT22;7791;47.246;9.648;2023-03-01T04:16:41;1.60;99.90
15386;DHT22;7791;47.246;9.648;2023-03-01T04:19:24;1.50;99.90
15386;DHT22;7791;47.246;9.648;2023-03-01T04:21:52;1.60;99.90
15386;DHT22;7791;47.246;9.648;2023-03-01T04:24:21;1.70;99.90
15386;DHT22;7791;47.246;9.648;2023-03-01T04:26:52;1.70;99.90
15386;DHT22;7791;47.246;9.648;2023-03-01T04:29:19;1.70;99.90
15386;DHT22;7791;47.246;9.648;2023-03-01T04:31:45;1.60;99.90
15386;DHT22;7791;47.246;9.648;2023-03-01T04:34:15;1.60;99.90
15386;DHT22;7791;47.246;9.648;2023-03-01T04:36:43;1.70;99.90
15386;DHT22;7791;47.246;9.648;2023-03-01T04:39:09;1.80;99.90
15386;DHT22;7791;47.246;9.648;2023-03-01T04:41:39;1.80;99.90
15386;DHT22;7791;47.246;9.648;2023-03-01T04:44:06;1.90;99.90
15386;DHT22;7791;47.246;9.648;2023-03-01T04:46:32;1.90;99.90
15386;DHT22;7791;47.246;9.648;2023-03-01T04:49:01;2.00;99.90
15386;DHT22;7791;47.246;9.648;2023-03-01T04:51:29;2.00;99.90
15386;DHT22;7791;47.246;9.648;2023-03-01T04:53:58;1.90;99.90
15386;DHT22;7791;47.246;9.648;2023-03-01T04:56:28;1.90;99.90
15386;DHT22;7791;47.246;9.648;2023-03-01T04:58:54;1.90;99.90
15386;DHT22;7791;47.246;9.648;2023-03-01T05:01:25;1.90;99.90
15386;DHT22;7791;47.246;9.648;2023-03-01T05:03:57;1.90;99.90
15386;DHT22;7791;47.246;9.648;2023-03-01T05:06:23;1.90;99.90
15386;DHT22;7791;47.246;9.648;2023-03-01T05:08:51;1.90;99.90
15386;DHT22;7791;47.246;9.648;2023-03-01T05:11:21;1.90;99.90
15386;DHT22;7791;47.246;9.648;2023-03-01T05:13:46;1.90;99.90
15386;DHT22;7791;47.246;9.648;2023-03-01T05:16:15;1.90;99.90
15386;DHT22;7791;47.246;9.648;2023-03-01T05:18:43;1.90;99.90
15386;DHT22;7791;47.246;9.648;2023-03-01T05:21:11;2.00;99.90
15386;DHT22;7791;47.246;9.648;2023-03-01T05:23:48;2.00;99.90
15386;DHT22;7791;47.246;9.648;2023-03-01T05:26:18;2.00;99.90
15386;DHT22;7791;47.246;9.648;2023-03-01T05:28:45;2.00;99.90
15386;DHT22;7791;47.246;9.648;2023-03-01T05:31:15;2.00;99.90
15386;DHT22;7791;47.246;9.648;2023-03-01T05:36:46;2.00;99.90
15386;DHT22;7791;47.246;9.648;2023-03-01T05:39:11;2.00;99.90
15386;DHT22;7791;47.246;9.648;2023-03-01T05:41:38;2.00;99.90
15386;DHT22;7791;47.246;9.648;2023-03-01T05:44:08;1.80;99.90
15386;DHT22;7791;47.246;9.648;2023-03-01T05:46:57;1.70;99.90
15386;DHT22;7791;47.246;9.648;2023-03-01T05:49:27;1.70;99.90
15386;DHT22;7791;47.246;9.648;2023-03-01T05:51:55;1.80;99.90
15386;DHT22;7791;47.246;9.648;2023-03-01T05:54:23;1.90;99.90
15386;DHT22;7791;47.246;9.648;2023-03-01T05:56:52;1.80;99.90
15386;DHT22;7791;47.246;9.648;2023-03-01T05:59:21;1.70;99.90
15386;DHT22;7791;47.246;9.648;2023-03-01T06:01:49;1.80;99.90
15386;DHT22;7791;47.246;9.648;2023-03-01T06:04:17;1.80;99.90
15386;DHT22;7791;47.246;9.648;2023-03-01T06:09:47;1.90;99.90
15386;DHT22;7791;47.246;9.648;2023-03-01T06:12:18;2.00;99.90
15386;DHT22;7791;47.246;9.648;2023-03-01T06:14:46;1.90;99.90
15386;DHT22;7791;47.246;9.648;2023-03-01T06:17:15;2.00;99.90
15386;DHT22;7791;47.246;9.648;2023-03-01T06:19:43;2.00;99.90
15386;DHT22;7791;47.246;9.648;2023-03-01T06:22:12;2.00;99.90
15386;DHT22;7791;47.246;9.648;2023-03-01T06:24:40;1.90;99.90
15386;DHT22;7791;47.246;9.648;2023-03-01T06:27:05;1.90;99.90
15386;DHT22;7791;47.246;9.648;2023-03-01T06:29:33;2.00;99.90
15386;DHT22;7791;47.246;9.648;2023-03-01T06:32:02;2.00;99.90
15386;DHT22;7791;47.246;9.648;2023-03-01T06:34:28;2.00;99.90
15386;DHT22;7791;47.246;9.648;2023-03-01T06:36:58;2.00;99.90
15386;DHT22;7791;47.246;9.648;2023-03-01T06:39:24;2.10;99.90
15386;DHT22;7791;47.246;9.648;2023-03-01T06:41:54;2.10;99.90
15386;DHT22;7791;47.246;9.648;2023-03-01T06:44:20;2.10;99.90
15386;DHT22;7791;47.246;9.648;2023-03-01T06:46:48;2.00;99.90
15386;DHT22;7791;47.246;9.648;2023-03-01T06:49:14;1.80;99.90
15386;DHT22;7791;47.246;9.648;2023-03-01T06:51:40;1.80;99.90
15386;DHT22;7791;47.246;9.648;2023-03-01T06:54:06;1.90;99.90
15386;DHT22;7791;47.246;9.648;2023-03-01T06:56:32;2.00;99.90
15386;DHT22;7791;47.246;9.648;2023-03-01T06:59:17;2.10;99.90
15386;DHT22;7791;47.246;9.648;2023-03-01T07:01:43;2.10;99.90
15386;DHT22;7791;47.246;9.648;2023-03-01T07:04:14;2.00;99.90
15386;DHT22;7791;47.246;9.648;2023-03-01T07:06:42;2.00;99.90
15386;DHT22;7791;47.246;9.648;2023-03-01T07:09:08;2.10;99.90
15386;DHT22;7791;47.246;9.648;2023-03-01T07:11:34;2.20;99.90
15386;DHT22;7791;47.246;9.648;2023-03-01T07:14:00;2.20;99.90
15386;DHT22;7791;47.246;9.648;2023-03-01T07:16:33;2.10;99.90
15386;DHT22;7791;47.246;9.648;2023-03-01T07:19:03;2.20;99.90
15386;DHT22;7791;47.246;9.648;2023-03-01T07:21:29;2.10;99.90
15386;DHT22;7791;47.246;9.648;2023-03-01T07:23:54;2.00;99.90
15386;DHT22;7791;47.246;9.648;2023-03-01T07:26:20;2.00;99.90
15386;DHT22;7791;47.246;9.648;2023-03-01T07:28:46;1.90;99.90
15386;DHT22;7791;47.246;9.648;2023-03-01T07:31:12;1.90;99.90
15386;DHT22;7791;47.246;9.648;2023-03-01T07:33:40;1.80;99.90
15386;DHT22;7791;47.246;9.648;2023-03-01T07:36:06;1.80;99.90
15386;DHT22;7791;47.246;9.648;2023-03-01T07:38:32;1.90;99.90
15386;DHT22;7791;47.246;9.648;2023-03-01T07:40:59;2.00;99.90
15386;DHT22;7791;47.246;9.648;2023-03-01T07:43:26;2.10;99.90
15386;DHT22;7791;47.246;9.648;2023-03-01T07:45:54;2.10;99.90
15386;DHT22;7791;47.246;9.648;2023-03-01T07:48:26;2.30;99.90
15386;DHT22;7791;47.246;9.648;2023-03-01T07:50:58;2.30;99.90
15386;DHT22;7791;47.246;9.648;2023-03-01T07:53:24;2.30;99.90
15386;DHT22;7791;47.246;9.648;2023-03-01T07:56:00;2.40;99.90
15386;DHT22;7791;47.246;9.648;2023-03-01T07:58:27;2.60;99.90
15386;DHT22;7791;47.246;9.648;2023-03-01T08:00:52;2.80;99.90
15386;DHT22;7791;47.246;9.648;2023-03-01T08:03:18;2.90;99.90
15386;DHT22;7791;47.246;9.648;2023-03-01T08:05:44;2.90;99.90
15386;DHT22;7791;47.246;9.648;2023-03-01T08:08:20;3.10;99.90
15386;DHT22;7791;47.246;9.648;2023-03-01T08:10:46;3.30;99.90
15386;DHT22;7791;47.246;9.648;2023-03-01T08:13:12;3.50;99.90
15386;DHT22;7791;47.246;9.648;2023-03-01T08:15:38;3.70;99.90
15386;DHT22;7791;47.246;9.648;2023-03-01T08:18:04;3.60;99.90
15386;DHT22;7791;47.246;9.648;2023-03-01T08:20:30;3.40;99.90
15386;DHT22;7791;47.246;9.648;2023-03-01T08:22:58;3.30;99.90
15386;DHT22;7791;47.246;9.648;2023-03-01T08:25:25;2.90;99.90
15386;DHT22;7791;47.246;9.648;2023-03-01T08:27:51;3.10;99.90
15386;DHT22;7791;47.246;9.648;2023-03-01T08:30:18;3.20;99.90
15386;DHT22;7791;47.246;9.648;2023-03-01T08:32:43;3.20;99.90
15386;DHT22;7791;47.246;9.648;2023-03-01T08:35:09;3.20;99.90
15386;DHT22;7791;47.246;9.648;2023-03-01T08:37:35;3.20;99.90
15386;DHT22;7791;47.246;9.648;2023-03-01T08:40:01;3.20;99.90
15386;DHT22;7791;47.246;9.648;2023-03-01T08:42:29;3.00;99.90
15386;DHT22;7791;47.246;9.648;2023-03-01T08:44:54;3.00;99.90
15386;DHT22;7791;47.246;9.648;2023-03-01T08:47:26;3.20;99.90
15386;DHT22;7791;47.246;9.648;2023-03-01T08:50:12;3.30;99.90
15386;DHT22;7791;47.246;9.648;2023-03-01T08:52:38;3.10;99.90
15386;DHT22;7791;47.246;9.648;2023-03-01T08:55:04;3.20;99.90
15386;DHT22;7791;47.246;9.648;2023-03-01T08:57:32;3.30;99.90
15386;DHT22;7791;47.246;9.648;2023-03-01T08:59:58;3.40;99.90
15386;DHT22;7791;47.246;9.648;2023-03-01T09:02:24;3.60;99.90
15386;DHT22;7791;47.246;9.648;2023-03-01T09:04:53;3.70;99.90
15386;DHT22;7791;47.246;9.648;2023-03-01T09:07:19;3.80;99.90
15386;DHT22;7791;47.246;9.648;2023-03-01T09:09:45;3.80;99.90
15386;DHT22;7791;47.246;9.648;2023-03-01T09:12:11;3.70;99.90
15386;DHT22;7791;47.246;9.648;2023-03-01T09:14:40;3.80;99.90
15386;DHT22;7791;47.246;9.648;2023-03-01T09:17:06;4.10;99.90
15386;DHT22;7791;47.246;9.648;2023-03-01T09:19:32;4.40;99.90
15386;DHT22;7791;47.246;9.648;2023-03-01T09:21:58;4.10;99.90
15386;DHT22;7791;47.246;9.648;2023-03-01T09:24:24;4.30;99.90
15386;DHT22;7791;47.246;9.648;2023-03-01T09:26:53;4.30;99.90
15386;DHT22;7791;47.246;9.648;2023-03-01T09:29:19;4.40;99.90
15386;DHT22;7791;47.246;9.648;2023-03-01T09:31:47;4.30;99.90
15386;DHT22;7791;47.246;9.648;2023-03-01T09:34:13;4.20;99.90
15386;DHT22;7791;47.246;9.648;2023-03-01T09:36:39;4.00;99.90
15386;DHT22;7791;47.246;9.648;2023-03-01T09:39:05;4.40;99.90
15386;DHT22;7791;47.246;9.648;2023-03-01T09:41:43;4.70;99.90
15386;DHT22;7791;47.246;9.648;2023-03-01T09:44:27;4.90;99.90
15386;DHT22;7791;47.246;9.648;2023-03-01T09:46:58;5.10;99.90
15386;DHT22;7791;47.246;9.648;2023-03-01T09:49:26;4.80;99.90
15386;DHT22;7791;47.246;9.648;2023-03-01T09:51:58;4.90;99.90
15386;DHT22;7791;47.246;9.648;2023-03-01T09:54:27;5.20;99.90
15386;DHT22;7791;47.246;9.648;2023-03-01T09:57:16;5.40;99.90
15386;DHT22;7791;47.246;9.648;2023-03-01T09:59:55;5.60;99.90
15386;DHT22;7791;47.246;9.648;2023-03-01T10:02:34;5.90;99.90
15386;DHT22;7791;47.246;9.648;2023-03-01T10:05:25;6.00;99.90
15386;DHT22;7791;47.246;9.648;2023-03-01T10:08:02;6.10;99.90
15386;DHT22;7791;47.246;9.648;2023-03-01T10:10:38;5.80;99.90
15386;DHT22;7791;47.246;9.648;2023-03-01T10:13:13;5.30;99.90
15386;DHT22;7791;47.246;9.648;2023-03-01T10:15:44;4.80;99.90
15386;DHT22;7791;47.246;9.648;2023-03-01T10:18:15;5.10;99.90
15386;DHT22;7791;47.246;9.648;2023-03-01T10:20:53;5.50;99.90
15386;DHT22;7791;47.246;9.648;2023-03-01T10:23:19;5.70;99.90
15386;DHT22;7791;47.246;9.648;2023-03-01T10:26:00;5.90;99.90
15386;DHT22;7791;47.246;9.648;2023-03-01T10:28:35;6.30;99.90
15386;DHT22;7791;47.246;9.648;2023-03-01T10:31:05;6.10;99.90
15386;DHT22;7791;47.246;9.648;2023-03-01T10:33:39;6.10;99.90
15386;DHT22;7791;47.246;9.648;2023-03-01T10:36:06;5.90;99.90
15386;DHT22;7791;47.246;9.648;2023-03-01T10:38:48;5.90;99.90
15386;DHT22;7791;47.246;9.648;2023-03-01T10:41:15;6.30;99.90
15386;DHT22;7791;47.246;9.648;2023-03-01T10:43:46;6.50;99.90
15386;DHT22;7791;47.246;9.648;2023-03-01T10:46:23;6.90;99.90
15386;DHT22;7791;47.246;9.648;2023-03-01T10:49:06;7.20;99.90
15386;DHT22;7791;47.246;9.648;2023-03-01T10:51:33;7.60;99.90
15386;DHT22;7791;47.246;9.648;2023-03-01T10:53:59;7.90;99.90
15386;DHT22;7791;47.246;9.648;2023-03-01T10:56:25;7.70;99.90
15386;DHT22;7791;47.246;9.648;2023-03-01T10:58:58;6.80;99.90
15386;DHT22;7791;47.246;9.648;2023-03-01T11:01:26;6.40;99.90
15386;DHT22;7791;47.246;9.648;2023-03-01T11:04:14;6.10;99.90
15386;DHT22;7791;47.246;9.648;2023-03-01T11:06:41;5.60;99.90
15386;DHT22;7791;47.246;9.648;2023-03-01T11:09:15;5.20;99.90
15386;DHT22;7791;47.246;9.648;2023-03-01T11:11:41;5.30;99.90
15386;DHT22;7791;47.246;9.648;2023-03-01T11:14:13;5.00;99.90
15386;DHT22;7791;47.246;9.648;2023-03-01T11:16:43;4.80;99.90
15386;DHT22;7791;47.246;9.648;2023-03-01T11:19:19;5.30;99.90
15386;DHT22;7791;47.246;9.648;2023-03-01T11:22:07;5.50;99.90
15386;DHT22;7791;47.246;9.648;2023-03-01T11:24:40;6.30;99.90
15386;DHT22;7791;47.246;9.648;2023-03-01T11:27:15;6.30;99.90
15386;DHT22;7791;47.246;9.648;2023-03-01T11:29:44;6.60;99.90
15386;DHT22;7791;47.246;9.648;2023-03-01T11:32:14;7.50;99.90
15386;DHT22;7791;47.246;9.648;2023-03-01T11:34:48;8.40;99.90
15386;DHT22;7791;47.246;9.648;2023-03-01T11:37:24;9.40;98.40
15386;DHT22;7791;47.246;9.648;2023-03-01T11:39:58;9.70;98.90
15386;DHT22;7791;47.246;9.648;2023-03-01T11:42:34;9.70;97.70
15386;DHT22;7791;47.246;9.648;2023-03-01T11:45:08;9.80;97.40
15386;DHT22;7791;47.246;9.648;2023-03-01T11:47:46;8.60;99.20
15386;DHT22;7791;47.246;9.648;2023-03-01T11:50:29;7.20;99.30
15386;DHT22;7791;47.246;9.648;2023-03-01T11:53:07;7.10;99.90
15386;DHT22;7791;47.246;9.648;2023-03-01T11:55:52;5.80;99.90
15386;DHT22;7791;47.246;9.648;2023-03-01T11:58:31;5.30;99.90
15386;DHT22;7791;47.246;9.648;2023-03-01T12:01:23;5.50;99.90
15386;DHT22;7791;47.246;9.648;2023-03-01T12:07:13;7.10;99.90
15386;DHT22;7791;47.246;9.648;2023-03-01T12:09:54;7.00;99.90
15386;DHT22;7791;47.246;9.648;2023-03-01T12:12:31;6.10;99.90
15386;DHT22;7791;47.246;9.648;2023-03-01T12:18:18;4.90;99.90
15386;DHT22;7791;47.246;9.648;2023-03-01T12:20:51;5.20;99.90
15386;DHT22;7791;47.246;9.648;2023-03-01T12:23:51;5.90;99.90
15386;DHT22;7791;47.246;9.648;2023-03-01T12:26:28;5.80;99.90
15386;DHT22;7791;47.246;9.648;2023-03-01T12:29:07;5.40;99.90
15386;DHT22;7791;47.246;9.648;2023-03-01T12:32:08;5.20;99.90
15386;DHT22;7791;47.246;9.648;2023-03-01T12:34:50;5.30;99.90
15386;DHT22;7791;47.246;9.648;2023-03-01T12:37:25;4.90;99.90
15386;DHT22;7791;47.246;9.648;2023-03-01T12:40:13;5.00;99.90
15386;DHT22;7791;47.246;9.648;2023-03-01T12:42:46;4.90;99.90
15386;DHT22;7791;47.246;9.648;2023-03-01T12:45:31;5.70;99.90
15386;DHT22;7791;47.246;9.648;2023-03-01T12:48:07;6.70;99.90
15386;DHT22;7791;47.246;9.648;2023-03-01T12:50:39;6.90;99.90
15386;DHT22;7791;47.246;9.648;2023-03-01T12:53:14;6.30;99.90
15386;DHT22;7791;47.246;9.648;2023-03-01T12:55:45;6.60;99.90
15386;DHT22;7791;47.246;9.648;2023-03-01T12:58:20;6.90;99.90
15386;DHT22;7791;47.246;9.648;2023-03-01T13:00:59;7.20;99.90
15386;DHT22;7791;47.246;9.648;2023-03-01T13:03:33;7.30;99.90
15386;DHT22;7791;47.246;9.648;2023-03-01T13:06:08;7.80;99.90
15386;DHT22;7791;47.246;9.648;2023-03-01T13:08:42;8.20;99.90
15386;DHT22;7791;47.246;9.648;2023-03-01T13:11:17;7.60;99.90
15386;DHT22;7791;47.246;9.648;2023-03-01T13:13:43;7.10;99.90
15386;DHT22;7791;47.246;9.648;2023-03-01T13:16:40;7.20;99.90
15386;DHT22;7791;47.246;9.648;2023-03-01T13:19:10;6.60;99.90
15386;DHT22;7791;47.246;9.648;2023-03-01T13:21:37;6.30;99.90
15386;DHT22;7791;47.246;9.648;2023-03-01T13:24:03;6.80;99.90
15386;DHT22;7791;47.246;9.648;2023-03-01T13:26:53;6.10;99.90
15386;DHT22;7791;47.246;9.648;2023-03-01T13:29:26;6.10;99.90
15386;DHT22;7791;47.246;9.648;2023-03-01T13:32:00;5.80;99.90
15386;DHT22;7791;47.246;9.648;2023-03-01T13:34:41;5.80;99.90
15386;DHT22;7791;47.246;9.648;2023-03-01T13:37:18;5.50;99.90
15386;DHT22;7791;47.246;9.648;2023-03-01T13:39:44;5.10;99.90
15386;DHT22;7791;47.246;9.648;2023-03-01T13:42:40;5.00;99.90
15386;DHT22;7791;47.246;9.648;2023-03-01T13:45:21;5.20;99.90
15386;DHT22;7791;47.246;9.648;2023-03-01T13:47:52;5.50;99.90
15386;DHT22;7791;47.246;9.648;2023-03-01T13:50:21;5.70;99.90
15386;DHT22;7791;47.246;9.648;2023-03-01T13:52:55;5.70;99.90
15386;DHT22;7791;47.246;9.648;2023-03-01T13:55:24;5.60;99.90
15386;DHT22;7791;47.246;9.648;2023-03-01T13:57:56;5.40;99.90
15386;DHT22;7791;47.246;9.648;2023-03-01T14:00:31;6.00;99.90
15386;DHT22;7791;47.246;9.648;2023-03-01T14:03:05;6.20;99.90
15386;DHT22;7791;47.246;9.648;2023-03-01T14:05:32;5.80;99.90
15386;DHT22;7791;47.246;9.648;2023-03-01T14:07:58;5.80;99.90
15386;DHT22;7791;47.246;9.648;2023-03-01T14:10:28;6.10;99.90
15386;DHT22;7791;47.246;9.648;2023-03-01T14:13:08;6.40;99.90
15386;DHT22;7791;47.246;9.648;2023-03-01T14:15:42;6.20;99.90
15386;DHT22;7791;47.246;9.648;2023-03-01T14:18:12;5.40;99.90
15386;DHT22;7791;47.246;9.648;2023-03-01T14:20:42;5.30;99.90
15386;DHT22;7791;47.246;9.648;2023-03-01T14:23:11;5.00;99.90
15386;DHT22;7791;47.246;9.648;2023-03-01T14:25:38;5.30;99.90
15386;DHT22;7791;47.246;9.648;2023-03-01T14:28:15;5.10;99.90
15386;DHT22;7791;47.246;9.648;2023-03-01T14:30:43;4.60;99.90
15386;DHT22;7791;47.246;9.648;2023-03-01T14:33:19;4.80;99.90
15386;DHT22;7791;47.246;9.648;2023-03-01T14:35:53;5.00;99.90
15386;DHT22;7791;47.246;9.648;2023-03-01T14:38:21;5.20;99.90
15386;DHT22;7791;47.246;9.648;2023-03-01T14:40:50;5.50;99.90
15386;DHT22;7791;47.246;9.648;2023-03-01T14:43:22;5.60;99.90
15386;DHT22;7791;47.246;9.648;2023-03-01T14:45:50;5.30;99.90
15386;DHT22;7791;47.246;9.648;2023-03-01T14:48:16;5.40;99.90
15386;DHT22;7791;47.246;9.648;2023-03-01T14:50:43;5.20;99.90
15386;DHT22;7791;47.246;9.648;2023-03-01T14:53:16;5.10;99.90
15386;DHT22;7791;47.246;9.648;2023-03-01T14:55:45;5.10;99.90
15386;DHT22;7791;47.246;9.648;2023-03-01T14:58:14;4.80;99.90
15386;DHT22;7791;47.246;9.648;2023-03-01T15:00:47;4.30;99.90
15386;DHT22;7791;47.246;9.648;2023-03-01T15:03:19;4.30;99.90
15386;DHT22;7791;47.246;9.648;2023-03-01T15:05:49;4.20;99.90
15386;DHT22;7791;47.246;9.648;2023-03-01T15:08:19;4.20;99.90
15386;DHT22;7791;47.246;9.648;2023-03-01T15:10:56;4.10;99.90
15386;DHT22;7791;47.246;9.648;2023-03-01T15:13:23;3.80;99.90
15386;DHT22;7791;47.246;9.648;2023-03-01T15:15:51;3.80;99.90
15386;DHT22;7791;47.246;9.648;2023-03-01T15:18:21;3.80;99.90
15386;DHT22;7791;47.246;9.648;2023-03-01T15:20:48;3.80;99.90
15386;DHT22;7791;47.246;9.648;2023-03-01T15:23:20;3.90;99.90
15386;DHT22;7791;47.246;9.648;2023-03-01T15:25:46;3.90;99.90
15386;DHT22;7791;47.246;9.648;2023-03-01T15:28:18;3.70;99.90
15386;DHT22;7791;47.246;9.648;2023-03-01T15:30:44;3.40;99.90
15386;DHT22;7791;47.246;9.648;2023-03-01T15:33:19;3.50;99.90
15386;DHT22;7791;47.246;9.648;2023-03-01T15:35:52;3.50;99.90
15386;DHT22;7791;47.246;9.648;2023-03-01T15:38:33;3.60;99.90
15386;DHT22;7791;47.246;9.648;2023-03-01T15:41:01;3.60;99.90
15386;DHT22;7791;47.246;9.648;2023-03-01T15:43:45;3.60;99.90
15386;DHT22;7791;47.246;9.648;2023-03-01T15:46:22;3.60;99.90
15386;DHT22;7791;47.246;9.648;2023-03-01T15:48:52;3.60;99.90
15386;DHT22;7791;47.246;9.648;2023-03-01T15:54:05;3.60;99.90
15386;DHT22;7791;47.246;9.648;2023-03-01T15:56:32;3.50;99.90
15386;DHT22;7791;47.246;9.648;2023-03-01T15:59:00;3.40;99.90
15386;DHT22;7791;47.246;9.648;2023-03-01T16:01:26;3.30;99.90
15386;DHT22;7791;47.246;9.648;2023-03-01T16:03:54;3.30;99.90
15386;DHT22;7791;47.246;9.648;2023-03-01T16:06:20;3.30;99.90
15386;DHT22;7791;47.246;9.648;2023-03-01T16:08:45;3.40;99.90
15386;DHT22;7791;47.246;9.648;2023-03-01T16:11:16;3.30;99.90
15386;DHT22;7791;47.246;9.648;2023-03-01T16:13:42;3.40;99.90
15386;DHT22;7791;47.246;9.648;2023-03-01T16:16:09;3.30;99.90
15386;DHT22;7791;47.246;9.648;2023-03-01T16:18:35;3.10;99.90
15386;DHT22;7791;47.246;9.648;2023-03-01T16:21:03;3.00;99.90
15386;DHT22;7791;47.246;9.648;2023-03-01T16:23:28;3.00;99.90
15386;DHT22;7791;47.246;9.648;2023-03-01T16:25:54;2.90;99.90
15386;DHT22;7791;47.246;9.648;2023-03-01T16:28:23;2.90;99.90
15386;DHT22;7791;47.246;9.648;2023-03-01T16:30:49;2.90;99.90
15386;DHT22;7791;47.246;9.648;2023-03-01T16:33:15;2.90;99.90
15386;DHT22;7791;47.246;9.648;2023-03-01T16:35:41;2.90;99.90
15386;DHT22;7791;47.246;9.648;2023-03-01T16:38:08;2.90;99.90
15386;DHT22;7791;47.246;9.648;2023-03-01T16:40:34;2.90;99.90
15386;DHT22;7791;47.246;9.648;2023-03-01T16:43:00;2.90;99.90
15386;DHT22;7791;47.246;9.648;2023-03-01T16:46:01;2.90;99.90
15386;DHT22;7791;47.246;9.648;2023-03-01T16:48:27;2.90;99.90
15386;DHT22;7791;47.246;9.648;2023-03-01T16:51:01;2.90;99.90
15386;DHT22;7791;47.246;9.648;2023-03-01T16:53:31;2.90;99.90
15386;DHT22;7791;47.246;9.648;2023-03-01T16:55:58;2.90;99.90
15386;DHT22;7791;47.246;9.648;2023-03-01T16:58:24;2.90;99.90
15386;DHT22;7791;47.246;9.648;2023-03-01T17:01:02;2.90;99.90
15386;DHT22;7791;47.246;9.648;2023-03-01T17:03:29;3.00;99.90
15386;DHT22;7791;47.246;9.648;2023-03-01T17:06:03;3.10;99.90
15386;DHT22;7791;47.246;9.648;2023-03-01T17:08:39;3.00;99.90